METAR Data
IDs: Format: Raw Decoded Include TAF

Data at: 0642 UTC 23 Feb 2019

PAJC 230557Z AUTO 05004KT 10SM FEW060 BKN120 03/M02 A3023 RMK AO2 SLP238 60000 T00331022 10039 20028 50005
PAJC 230357Z AUTO 00000KT 10SM OVC065 03/M03 A3023 RMK AO2 SLP236 T00331028
PAJC 230257Z AUTO 00000KT 10SM OVC065 03/M03 A3022 RMK AO2 SLP232 T00331033 53002
PAJC 230157Z AUTO 34003KT 10SM OVC065 04/M03 A3021 RMK AO2 SLP229 T00391033
PAJC 222357Z AUTO 35004KT 10SM BKN085 OVC100 04/M03 A3021 RMK AO2 SLP230 T00391028 10044 21011 58008
PAJC 222257Z AUTO 01004KT 10SM SCT100 03/M02 A3022 RMK AO2 SLP233 T00331022
PAJC 222157Z AUTO 04004KT 10SM CLR 03/M02 A3024 RMK AO2 SLP239 T00331017
PAJC 221957Z AUTO 00000KT 10SM CLR 01/M03 A3024 RMK AO2 SLP240 T00061033 FZRANO
PAJC 221857Z AUTO 00000KT 10SM CLR 00/M03 A3023 RMK AO2 SLP238 T00001033 FZRANO
PAJC 221757Z AUTO 14003KT 10SM CLR M01/M03 A3023 RMK AO2 SLP238 T10061033 10011 21011 56012 FZRANO
PAJC 221657Z AUTO 14003KT 10SM CLR M01/M03 A3024 RMK AO2 SLP241 T10061033 FZRANO
PAJC 221557Z AUTO 00000KT 10SM CLR 00/M04 A3025 RMK AO2 SLP245 T00001044 FZRANO
PAJC 221457Z AUTO 03003KT 10SM SCT037 00/M04 A3027 RMK AO2 SLP250 T00001044 58010 FZRANO
PAJC 221357Z AUTO 10005KT 10SM FEW039 00/M04 A3028 RMK AO2 SLP255 T00001039 FZRANO
PAJC 221257Z AUTO 00000KT 10SM FEW110 01/M04 A3029 RMK AO2 SLP258 T00061044 FZRANO
PAJC 221157Z AUTO 00000KT 10SM CLR 01/M04 A3030 RMK AO2 SLP260 T00111039 10028 20000 55004 FZRANO
PAJC 221057Z AUTO 00000KT 10SM FEW110 01/M04 A3030 RMK AO2 SLP260 T00111039 FZRANO
PAJC 220957Z AUTO 00000KT 10SM CLR 01/M04 A3030 RMK AO2 SLP262 T00111044 FZRANO
PAJC 220857Z AUTO 00000KT 10SM CLR 01/M04 A3031 RMK AO2 SLP264 T00111044 55002 FZRANO
PAJC 220757Z AUTO 05003KT 10SM CLR 02/M04 A3030 RMK AO2 SLP262 T00171044 400330000 FZRANO
PAJC 220657Z AUTO 10003KT 10SM FEW120 02/M04 A3029 RMK AO2 SLP259 T00221044 FZRANO
PAJC 220357Z AUTO 24007KT 10SM CLR 03/M05 A3030 RMK AO2 SLP262 T00281050
PAJC 220257Z AUTO 23006KT 10SM SCT050 03/M05 A3030 RMK AO2 SLP260 T00281050 58004
PAJC 220157Z AUTO 27007KT 10SM OVC055 03/M05 A3031 RMK AO2 SLP264 T00281050
PAJC 220057Z AUTO 25005KT 10SM FEW044 03/M05 A3031 RMK AO2 SLP266 T00281050
PAJC 212357Z AUTO 26009KT 10SM SCT049 03/M06 A3031 RMK AO2 SLP265 60000 T00281056 10033 20017 50003
PAJC 212257Z AUTO 26010G16KT 10SM BKN038 03/M06 A3032 RMK AO2 RAE12 SLP266 P0000 T00331056
PAJC 212157Z AUTO 23008G16KT 10SM -RA BKN035 OVC045 02/M04 A3032 RMK AO2 RAB44 SLP269 P0000 T00221044 FZRANO
PAJC 212057Z AUTO 25014G24KT 10SM BKN043 02/M06 A3030 RMK AO2 PK WND 24030/2013 SLP262 T00221056 51017 FZRANO
PAJC 211957Z AUTO 25015G27KT 10SM FEW035 02/M05 A3029 RMK AO2 PK WND 24029/1934 SLP257 T00171050 FZRANO
PAJC 211857Z AUTO 25019G27KT 10SM BKN043 02/M06 A3027 RMK AO2 PK WND 24027/1855 SLP252 T00171056 FZRANO